Time;durP1;ratioP1;P1;durP2;ratioP2;P2;SDS_P1;SDS_P2;PMS_P1;PMS_P2;Temp;Humidity;BMP_temperature;BMP_pressure;BME280_temperature;BME280_humidity;BME280_pressure;Samples;Min_cycle;Max_cycle;Signal;HPM_P1;HPM_P2
2022/12/03 00:02:04;;;;;;;305.33;121.37;;;;;;;;;;4964952;28;20198;-54
2022/12/03 00:04:30;;;;;;;347.53;128.87;;;;;;;;;;4970242;28;20428;-52
2022/12/03 00:06:56;;;;;;;511.33;181.90;;;;;;;;;;4969741;28;20713;-53
2022/12/03 00:09:22;;;;;;;442.13;156.40;;;;;;;;;;4968113;28;20228;-54
2022/12/03 00:11:48;;;;;;;536.50;202.37;;;;;;;;;;4971296;28;20205;-54
2022/12/03 00:14:14;;;;;;;424.47;163.03;;;;;;;;;;4960207;28;20220;-54
2022/12/03 00:16:40;;;;;;;434.97;160.77;;;;;;;;;;4964871;28;20220;-53
2022/12/03 00:19:06;;;;;;;459.93;168.97;;;;;;;;;;4959761;28;20594;-52
2022/12/03 00:21:32;;;;;;;498.40;170.47;;;;;;;;;;4964083;28;20255;-53
2022/12/03 00:23:58;;;;;;;326.57;124.87;;;;;;;;;;4974018;28;20244;-52
2022/12/03 00:26:24;;;;;;;436.23;158.47;;;;;;;;;;4967711;28;20974;-54
2022/12/03 00:28:51;;;;;;;456.73;172.00;;;;;;;;;;4966739;28;20201;-53
2022/12/03 00:31:17;;;;;;;439.07;158.50;;;;;;;;;;4964885;28;20241;-52
2022/12/03 00:33:43;;;;;;;527.17;189.67;;;;;;;;;;4966728;28;20218;-53
2022/12/03 00:36:09;;;;;;;434.93;156.87;;;;;;;;;;4963755;28;20312;-53
2022/12/03 00:38:35;;;;;;;433.43;158.77;;;;;;;;;;4969822;28;20251;-52
2022/12/03 00:41:01;;;;;;;484.77;173.03;;;;;;;;;;4962064;28;20185;-53
2022/12/03 00:43:27;;;;;;;373.73;136.50;;;;;;;;;;4955246;28;20213;-52
2022/12/03 00:45:53;;;;;;;371.97;135.10;;;;;;;;;;4965459;28;20217;-54
2022/12/03 00:48:18;;;;;;;602.17;222.47;;;;;;;;;;4965711;28;20232;-53
2022/12/03 00:50:44;;;;;;;477.10;175.90;;;;;;;;;;4958158;28;20351;-54
2022/12/03 00:53:13;;;;;;;475.33;167.70;;;;;;;;;;4971831;28;20213;-55
2022/12/03 00:55:39;;;;;;;413.90;150.83;;;;;;;;;;4970407;28;20325;-54
2022/12/03 00:58:07;;;;;;;340.20;124.70;;;;;;;;;;4964156;28;20551;-54
2022/12/03 01:00:33;;;;;;;352.97;132.57;;;;;;;;;;4972915;28;20229;-55
2022/12/03 01:02:59;;;;;;;522.80;184.73;;;;;;;;;;4965290;28;20760;-54
2022/12/03 01:05:25;;;;;;;536.50;190.83;;;;;;;;;;4964336;28;20228;-54
2022/12/03 01:07:53;;;;;;;469.87;181.10;;;;;;;;;;4966445;28;20212;-53
2022/12/03 01:10:19;;;;;;;458.43;161.33;;;;;;;;;;4967419;28;20289;-54
2022/12/03 01:12:46;;;;;;;376.03;137.87;;;;;;;;;;4967804;28;20223;-53
2022/12/03 01:15:12;;;;;;;578.77;208.70;;;;;;;;;;4969996;28;20244;-54
2022/12/03 01:17:38;;;;;;;448.03;167.83;;;;;;;;;;4972325;28;20698;-55
2022/12/03 01:20:05;;;;;;;316.47;122.77;;;;;;;;;;4961926;28;20190;-54
2022/12/03 01:22:31;;;;;;;505.30;178.70;;;;;;;;;;4976893;28;20235;-53
2022/12/03 01:24:57;;;;;;;498.83;188.90;;;;;;;;;;4969726;28;20574;-53
2022/12/03 01:27:26;;;;;;;492.10;174.10;;;;;;;;;;4970673;28;21198;-53
2022/12/03 01:29:52;;;;;;;421.60;159.43;;;;;;;;;;4966158;28;20209;-54
2022/12/03 01:32:18;;;;;;;389.77;142.47;;;;;;;;;;4979866;28;20340;-53
2022/12/03 01:34:44;;;;;;;366.53;139.93;;;;;;;;;;4968141;28;20214;-54
2022/12/03 01:37:10;;;;;;;489.23;178.20;;;;;;;;;;4967286;28;20643;-54
2022/12/03 01:39:36;;;;;;;424.10;148.23;;;;;;;;;;4964378;28;20301;-54
2022/12/03 01:42:06;;;;;;;408.93;150.13;;;;;;;;;;4971852;28;20238;-52
2022/12/03 01:44:33;;;;;;;451.53;164.43;;;;;;;;;;4970068;28;20303;-53
2022/12/03 01:47:03;;;;;;;479.57;170.07;;;;;;;;;;4968109;28;20216;-53
2022/12/03 01:49:31;;;;;;;507.87;189.27;;;;;;;;;;4968422;28;20680;-52
2022/12/03 01:51:57;;;;;;;370.47;142.67;;;;;;;;;;4970256;28;20249;-51
2022/12/03 01:54:27;;;;;;;394.03;149.47;;;;;;;;;;4972582;28;20221;-53
2022/12/03 01:56:54;;;;;;;363.73;127.23;;;;;;;;;;4974847;28;20695;-53
2022/12/03 01:59:21;;;;;;;540.33;185.20;;;;;;;;;;4961503;28;20263;-52
2022/12/03 02:01:47;;;;;;;464.73;162.93;;;;;;;;;;4974935;28;20478;-54
2022/12/03 02:04:14;;;;;;;503.67;177.37;;;;;;;;;;4970019;28;20547;-52
2022/12/03 02:06:40;;;;;;;512.63;186.90;;;;;;;;;;4972828;28;20221;-53
2022/12/03 02:09:07;;;;;;;359.93;129.10;;;;;;;;;;4980459;28;20209;-54
2022/12/03 02:11:35;;;;;;;481.70;176.23;;;;;;;;;;4970632;28;20799;-52
2022/12/03 02:14:02;;;;;;;527.67;199.57;;;;;;;;;;4971744;28;20220;-53
2022/12/03 02:16:31;;;;;;;319.90;118.73;;;;;;;;;;4972886;28;20240;-52
2022/12/03 02:18:58;;;;;;;515.00;186.03;;;;;;;;;;4973139;28;20280;-52
2022/12/03 02:21:33;;;;;;;399.80;145.73;;;;;;;;;;4974666;28;20217;-53
2022/12/03 02:24:05;;;;;;;379.27;141.10;;;;;;;;;;4966420;28;20228;-52
2022/12/03 02:26:31;;;;;;;525.07;190.80;;;;;;;;;;4964874;28;20717;-54
2022/12/03 02:28:57;;;;;;;436.03;158.80;;;;;;;;;;4969434;28;20189;-52
2022/12/03 02:31:23;;;;;;;437.97;164.03;;;;;;;;;;4968536;28;20189;-54
2022/12/03 02:33:50;;;;;;;345.27;135.53;;;;;;;;;;4968024;28;20225;-52
2022/12/03 02:36:16;;;;;;;446.80;158.53;;;;;;;;;;4970071;28;20252;-53
2022/12/03 02:38:43;;;;;;;494.13;175.13;;;;;;;;;;4968806;28;20277;-52
2022/12/03 02:42:33;;;;;;;440.87;167.27;;;;;;;;;;4968230;28;20193;-53
2022/12/03 02:43:58;;;;;;;771.37;301.00;;;;;;;;;;4963425;28;20309;-52
2022/12/03 02:46:24;;;;;;;360.03;140.07;;;;;;;;;;4969117;28;20197;-53
2022/12/03 02:48:50;;;;;;;545.07;203.27;;;;;;;;;;4971210;28;20780;-54
2022/12/03 02:51:16;;;;;;;386.60;144.87;;;;;;;;;;4970408;28;20294;-54
2022/12/03 02:53:47;;;;;;;398.33;150.90;;;;;;;;;;4976437;28;20225;-53
2022/12/03 02:56:15;;;;;;;551.57;205.57;;;;;;;;;;4964423;28;20389;-53
2022/12/03 02:58:42;;;;;;;404.37;152.73;;;;;;;;;;4978155;28;20196;-53
2022/12/03 03:01:08;;;;;;;538.17;196.57;;;;;;;;;;4959131;28;20304;-52
2022/12/03 03:03:36;;;;;;;417.67;152.00;;;;;;;;;;4962127;28;20226;-51
2022/12/03 03:06:08;;;;;;;518.17;186.20;;;;;;;;;;4975781;28;20303;-52
2022/12/03 03:08:35;;;;;;;535.83;197.43;;;;;;;;;;4960743;28;20375;-53
2022/12/03 03:11:01;;;;;;;558.30;209.03;;;;;;;;;;4969496;28;20258;-52
2022/12/03 03:13:29;;;;;;;422.67;163.80;;;;;;;;;;4964211;28;20300;-53
2022/12/03 03:15:55;;;;;;;423.27;150.10;;;;;;;;;;4961930;28;20214;-54
2022/12/03 03:18:21;;;;;;;574.53;206.13;;;;;;;;;;4969371;28;20221;-52
2022/12/03 03:20:47;;;;;;;673.60;250.93;;;;;;;;;;4961025;28;20630;-53
2022/12/03 03:23:17;;;;;;;533.27;190.63;;;;;;;;;;4970963;28;20480;-53
2022/12/03 03:25:45;;;;;;;418.67;151.23;;;;;;;;;;4967795;28;20189;-52
2022/12/03 03:28:11;;;;;;;354.90;137.33;;;;;;;;;;4977395;28;20245;-53
2022/12/03 03:30:38;;;;;;;359.87;130.13;;;;;;;;;;4966429;28;20209;-54
2022/12/03 03:33:04;;;;;;;511.00;181.37;;;;;;;;;;4967373;28;20630;-55
2022/12/03 03:35:30;;;;;;;504.77;183.27;;;;;;;;;;4968106;28;20226;-53
2022/12/03 03:37:57;;;;;;;455.83;164.50;;;;;;;;;;4969026;28;20333;-53
2022/12/03 03:40:23;;;;;;;474.03;164.87;;;;;;;;;;4977480;28;20194;-53
2022/12/03 03:42:49;;;;;;;389.40;141.50;;;;;;;;;;4974164;28;20579;-52
2022/12/03 03:45:16;;;;;;;557.50;201.83;;;;;;;;;;4965925;28;20292;-53
2022/12/03 03:47:42;;;;;;;452.27;168.40;;;;;;;;;;4971698;28;20277;-52
2022/12/03 03:50:10;;;;;;;475.23;191.80;;;;;;;;;;4963044;28;20198;-54
2022/12/03 03:52:37;;;;;;;529.23;189.33;;;;;;;;;;4967984;28;20201;-55
2022/12/03 03:55:04;;;;;;;469.87;178.13;;;;;;;;;;4980891;28;20216;-54
2022/12/03 03:57:30;;;;;;;467.33;171.53;;;;;;;;;;4975448;28;20214;-54
2022/12/03 03:59:57;;;;;;;452.77;165.93;;;;;;;;;;4968624;28;20218;-54
2022/12/03 04:02:24;;;;;;;490.77;176.67;;;;;;;;;;4975675;28;20224;-53
2022/12/03 04:04:50;;;;;;;472.37;175.20;;;;;;;;;;4967392;28;20396;-53
2022/12/03 04:07:16;;;;;;;481.27;170.80;;;;;;;;;;4968685;28;20228;-54
2022/12/03 04:09:43;;;;;;;398.63;147.90;;;;;;;;;;4975551;28;20218;-54
2022/12/03 04:14:53;;;;;;;433.50;157.70;;;;;;;;;;4969677;28;20322;-54
2022/12/03 04:17:20;;;;;;;485.90;183.40;;;;;;;;;;4966538;28;21430;-54
2022/12/03 04:19:46;;;;;;;465.67;178.47;;;;;;;;;;4961529;28;20228;-54
2022/12/03 04:22:39;;;;;;;364.47;141.93;;;;;;;;;;4933797;28;20306;-54
2022/12/03 04:30:35;;;;;;;388.27;144.57;;;;;;;;;;4966713;28;20677;-53
2022/12/03 04:35:45;;;;;;;413.30;149.07;;;;;;;;;;4954405;28;20221;-53
2022/12/03 04:38:12;;;;;;;554.77;201.27;;;;;;;;;;4946994;28;20190;-53
2022/12/03 04:43:23;;;;;;;327.43;126.70;;;;;;;;;;4975745;28;20276;-54
2022/12/03 04:45:49;;;;;;;410.53;156.07;;;;;;;;;;4967852;28;20218;-54
2022/12/03 04:48:16;;;;;;;573.20;219.57;;;;;;;;;;4968320;28;20416;-54
2022/12/03 04:50:42;;;;;;;510.97;199.70;;;;;;;;;;4963608;28;20217;-53
2022/12/03 04:53:08;;;;;;;487.57;193.90;;;;;;;;;;4959660;28;20301;-53
2022/12/03 04:55:34;;;;;;;449.73;172.07;;;;;;;;;;4964996;28;20178;-53
2022/12/03 04:58:00;;;;;;;444.20;173.47;;;;;;;;;;4965600;28;20221;-54
2022/12/03 05:00:26;;;;;;;495.13;183.53;;;;;;;;;;4968645;28;20692;-54
2022/12/03 05:02:52;;;;;;;445.87;169.07;;;;;;;;;;4965276;28;20866;-54
2022/12/03 05:05:18;;;;;;;403.17;156.23;;;;;;;;;;4943844;28;20228;-55
2022/12/03 05:07:44;;;;;;;493.13;180.60;;;;;;;;;;4946757;28;20671;-54
2022/12/03 05:10:10;;;;;;;500.67;185.53;;;;;;;;;;4943686;28;21099;-54
2022/12/03 05:12:36;;;;;;;520.07;191.63;;;;;;;;;;4948252;28;20315;-53
2022/12/03 05:15:03;;;;;;;549.27;205.53;;;;;;;;;;4955122;28;20231;-54
2022/12/03 05:17:29;;;;;;;457.40;173.00;;;;;;;;;;4947296;28;20877;-54
2022/12/03 05:22:40;;;;;;;405.30;146.50;;;;;;;;;;4954148;28;20250;-54
2022/12/03 05:25:06;;;;;;;498.83;185.37;;;;;;;;;;4943538;28;20210;-53
2022/12/03 05:27:33;;;;;;;499.23;178.73;;;;;;;;;;4953971;28;20324;-54
2022/12/03 05:29:59;;;;;;;366.37;148.63;;;;;;;;;;4936302;28;20322;-54
2022/12/03 05:32:25;;;;;;;575.93;217.90;;;;;;;;;;4937212;28;20390;-53
2022/12/03 05:34:51;;;;;;;573.53;219.60;;;;;;;;;;4942245;28;20186;-53
2022/12/03 05:37:17;;;;;;;400.37;146.50;;;;;;;;;;4935888;28;20234;-53
2022/12/03 05:39:43;;;;;;;340.00;130.13;;;;;;;;;;4948352;28;20296;-52
2022/12/03 05:44:54;;;;;;;555.53;211.50;;;;;;;;;;4957149;28;20300;-54
2022/12/03 05:47:20;;;;;;;356.97;145.00;;;;;;;;;;4943304;28;20575;-53
2022/12/03 05:49:46;;;;;;;493.50;187.70;;;;;;;;;;4952744;28;20209;-54
2022/12/03 05:52:12;;;;;;;371.53;143.47;;;;;;;;;;4946911;28;20267;-53
2022/12/03 05:54:40;;;;;;;514.43;179.63;;;;;;;;;;4950429;28;20224;-54
2022/12/03 05:57:06;;;;;;;542.97;193.80;;;;;;;;;;4942212;28;20285;-54
2022/12/03 05:59:33;;;;;;;423.77;156.90;;;;;;;;;;4944158;28;20272;-54
2022/12/03 06:01:59;;;;;;;347.47;129.80;;;;;;;;;;4949261;28;20241;-54
2022/12/03 06:04:25;;;;;;;338.57;137.17;;;;;;;;;;4951060;28;20183;-54
2022/12/03 06:06:51;;;;;;;485.80;183.83;;;;;;;;;;4942936;28;20276;-54
2022/12/03 06:09:17;;;;;;;456.00;179.93;;;;;;;;;;4947065;28;20802;-54
2022/12/03 06:11:43;;;;;;;503.87;191.27;;;;;;;;;;4951951;28;20217;-52
2022/12/03 06:14:08;;;;;;;380.20;147.97;;;;;;;;;;4962325;28;20929;-53
2022/12/03 06:16:34;;;;;;;426.50;162.10;;;;;;;;;;4965108;28;20225;-52
2022/12/03 06:19:00;;;;;;;428.17;169.83;;;;;;;;;;4960481;28;20747;-53
2022/12/03 06:21:26;;;;;;;482.57;182.30;;;;;;;;;;4945924;28;20232;-52
2022/12/03 06:23:52;;;;;;;475.80;172.87;;;;;;;;;;4957089;28;20618;-53
2022/12/03 06:26:18;;;;;;;430.07;166.73;;;;;;;;;;4952097;28;20297;-52
2022/12/03 06:28:46;;;;;;;509.57;192.30;;;;;;;;;;4950897;28;20213;-52
2022/12/03 06:31:12;;;;;;;371.90;137.23;;;;;;;;;;4938116;28;20545;-53
2022/12/03 06:33:38;;;;;;;384.50;145.23;;;;;;;;;;4961577;28;20221;-52
2022/12/03 06:36:05;;;;;;;434.07;173.03;;;;;;;;;;4957070;28;21575;-53
2022/12/03 06:38:31;;;;;;;436.23;169.77;;;;;;;;;;4962261;28;20232;-52
2022/12/03 06:40:56;;;;;;;471.27;173.90;;;;;;;;;;4968297;28;20181;-52
2022/12/03 06:43:22;;;;;;;381.73;144.63;;;;;;;;;;4969926;28;20283;-54
2022/12/03 06:45:49;;;;;;;554.47;205.70;;;;;;;;;;4965917;28;20272;-52
2022/12/03 06:48:15;;;;;;;431.40;168.87;;;;;;;;;;4967167;28;20218;-52
2022/12/03 06:50:41;;;;;;;573.23;210.07;;;;;;;;;;4967011;28;20230;-52
2022/12/03 06:53:07;;;;;;;520.63;183.93;;;;;;;;;;4958934;28;20216;-53
2022/12/03 06:55:32;;;;;;;529.53;196.00;;;;;;;;;;4968105;28;20186;-52
2022/12/03 06:57:58;;;;;;;443.47;172.57;;;;;;;;;;4970834;28;20622;-52
2022/12/03 07:00:24;;;;;;;859.37;363.53;;;;;;;;;;4952428;28;20287;-51
2022/12/03 07:02:50;;;;;;;656.87;257.30;;;;;;;;;;4956447;28;20221;-53
2022/12/03 07:05:16;;;;;;;398.80;152.00;;;;;;;;;;4971829;28;20216;-53
2022/12/03 07:07:42;;;;;;;656.63;259.40;;;;;;;;;;4964930;28;20646;-52
2022/12/03 07:10:09;;;;;;;587.10;203.17;;;;;;;;;;4969509;28;20372;-55
2022/12/03 07:12:35;;;;;;;458.70;171.30;;;;;;;;;;4969334;28;20228;-54
2022/12/03 07:15:01;;;;;;;563.67;212.20;;;;;;;;;;4957223;28;20224;-53
2022/12/03 07:17:27;;;;;;;494.77;183.13;;;;;;;;;;4970234;28;20212;-54
2022/12/03 07:19:53;;;;;;;582.27;211.60;;;;;;;;;;4954402;28;20261;-55
2022/12/03 07:22:19;;;;;;;551.43;210.20;;;;;;;;;;4959618;28;20194;-53
2022/12/03 07:24:45;;;;;;;607.33;227.07;;;;;;;;;;4964863;28;20642;-53
2022/12/03 07:27:11;;;;;;;546.87;200.10;;;;;;;;;;4958642;28;20637;-54
2022/12/03 07:29:37;;;;;;;431.57;151.87;;;;;;;;;;4972698;28;20516;-54
2022/12/03 07:32:03;;;;;;;447.10;168.07;;;;;;;;;;4961357;28;20589;-53
2022/12/03 07:34:29;;;;;;;494.20;187.23;;;;;;;;;;4965164;28;20197;-54
2022/12/03 07:36:55;;;;;;;676.13;253.30;;;;;;;;;;4952148;28;20224;-53
2022/12/03 07:39:21;;;;;;;622.50;233.57;;;;;;;;;;4955820;28;20204;-53
2022/12/03 07:41:47;;;;;;;635.17;241.03;;;;;;;;;;4966809;28;21364;-54
2022/12/03 07:44:13;;;;;;;527.77;191.30;;;;;;;;;;4969655;28;20683;-54
2022/12/03 07:46:40;;;;;;;477.00;181.57;;;;;;;;;;4962663;28;20312;-54
2022/12/03 07:49:06;;;;;;;647.37;247.83;;;;;;;;;;4969824;28;20232;-53
2022/12/03 07:51:32;;;;;;;619.50;238.73;;;;;;;;;;4961914;28;20225;-54
2022/12/03 07:53:58;;;;;;;428.97;170.73;;;;;;;;;;4964270;28;20229;-52
2022/12/03 07:56:23;;;;;;;553.83;208.63;;;;;;;;;;4962772;28;20236;-54
2022/12/03 07:58:49;;;;;;;514.47;189.50;;;;;;;;;;4970683;28;20201;-53
2022/12/03 08:01:15;;;;;;;592.77;218.70;;;;;;;;;;4967368;28;20244;-54
2022/12/03 08:03:41;;;;;;;474.40;175.67;;;;;;;;;;4968465;28;20228;-53
2022/12/03 08:06:08;;;;;;;627.47;247.03;;;;;;;;;;4959031;28;20209;-53
2022/12/03 08:08:34;;;;;;;542.03;205.50;;;;;;;;;;4962561;28;20652;-52
2022/12/03 08:11:01;;;;;;;627.53;238.43;;;;;;;;;;4964150;28;20486;-52
2022/12/03 08:13:27;;;;;;;447.70;168.60;;;;;;;;;;4965419;28;20232;-52
2022/12/03 08:15:55;;;;;;;413.57;162.33;;;;;;;;;;4966071;28;20571;-54
2022/12/03 08:18:21;;;;;;;721.63;299.23;;;;;;;;;;4960268;28;20221;-51
2022/12/03 08:20:49;;;;;;;507.63;200.43;;;;;;;;;;4966030;28;20217;-52
2022/12/03 08:23:22;;;;;;;542.10;208.33;;;;;;;;;;4971092;28;20691;-54
2022/12/03 08:25:49;;;;;;;451.40;166.37;;;;;;;;;;4964960;28;20245;-53
2022/12/03 08:28:17;;;;;;;482.03;179.87;;;;;;;;;;4964886;28;20229;-53
2022/12/03 08:30:44;;;;;;;519.67;207.60;;;;;;;;;;4943593;28;20317;-53
2022/12/03 08:33:17;;;;;;;563.77;221.40;;;;;;;;;;4958920;28;20665;-54
2022/12/03 08:35:45;;;;;;;565.97;229.13;;;;;;;;;;4951671;28;20697;-55
2022/12/03 08:38:12;;;;;;;503.23;200.13;;;;;;;;;;4960476;28;20721;-53
2022/12/03 08:40:42;;;;;;;428.50;167.93;;;;;;;;;;4964585;28;20235;-51
2022/12/03 08:43:19;;;;;;;671.20;272.33;;;;;;;;;;4956284;28;20233;-51
2022/12/03 08:45:45;;;;;;;587.33;227.80;;;;;;;;;;4949710;28;20221;-53
2022/12/03 08:48:31;;;;;;;615.33;232.23;;;;;;;;;;4951568;28;20233;-53
2022/12/03 08:50:58;;;;;;;492.13;191.03;;;;;;;;;;4960966;28;20231;-53
2022/12/03 08:53:27;;;;;;;444.30;178.10;;;;;;;;;;4972252;28;20291;-55
2022/12/03 08:55:55;;;;;;;567.83;208.63;;;;;;;;;;4969736;28;20221;-53
2022/12/03 08:58:33;;;;;;;555.83;219.97;;;;;;;;;;4954914;28;20187;-52
2022/12/03 09:01:19;;;;;;;477.10;179.50;;;;;;;;;;4953006;28;20225;-53
2022/12/03 09:03:49;;;;;;;553.50;217.50;;;;;;;;;;4960670;28;20254;-54
2022/12/03 09:06:15;;;;;;;452.17;175.57;;;;;;;;;;4951902;28;20265;-53
2022/12/03 09:08:41;;;;;;;569.27;222.07;;;;;;;;;;4960999;28;20330;-53
2022/12/03 09:11:07;;;;;;;629.00;241.97;;;;;;;;;;4944205;28;20200;-53
2022/12/03 09:13:33;;;;;;;580.07;234.67;;;;;;;;;;4944209;28;20574;-52
2022/12/03 09:15:59;;;;;;;662.20;265.50;;;;;;;;;;4944239;28;20233;-53
2022/12/03 09:18:25;;;;;;;467.87;175.77;;;;;;;;;;4956781;28;20276;-53
2022/12/03 09:20:51;;;;;;;635.27;243.37;;;;;;;;;;4954018;28;20439;-52
2022/12/03 09:23:17;;;;;;;583.23;218.07;;;;;;;;;;4949586;28;20257;-52
2022/12/03 09:25:43;;;;;;;590.97;228.47;;;;;;;;;;4955925;28;20256;-54
2022/12/03 09:28:09;;;;;;;421.87;168.43;;;;;;;;;;4961391;28;20221;-54
2022/12/03 09:30:35;;;;;;;546.77;213.20;;;;;;;;;;4961019;28;20228;-54
2022/12/03 09:33:01;;;;;;;550.63;215.53;;;;;;;;;;4960281;28;20233;-53
2022/12/03 09:35:27;;;;;;;549.53;218.53;;;;;;;;;;4943550;28;20382;-53
2022/12/03 09:37:53;;;;;;;589.33;220.43;;;;;;;;;;4962293;28;20194;-53
2022/12/03 09:40:20;;;;;;;489.37;193.97;;;;;;;;;;4953437;28;20257;-52
2022/12/03 09:42:46;;;;;;;474.00;173.67;;;;;;;;;;4954857;28;20233;-53
2022/12/03 09:45:13;;;;;;;456.50;181.20;;;;;;;;;;4956171;28;21084;-53
2022/12/03 09:47:41;;;;;;;527.30;213.53;;;;;;;;;;4967637;28;20800;-54
2022/12/03 09:50:10;;;;;;;559.23;223.73;;;;;;;;;;4960559;28;20232;-54
2022/12/03 09:52:36;;;;;;;477.60;164.13;;;;;;;;;;4957227;28;20294;-53
2022/12/03 09:55:11;;;;;;;659.77;241.17;;;;;;;;;;4952698;28;20263;-52
2022/12/03 09:57:37;;;;;;;531.70;187.93;;;;;;;;;;4958056;28;20221;-52
2022/12/03 10:00:06;;;;;;;539.50;192.00;;;;;;;;;;4965885;28;20228;-52
2022/12/03 10:02:33;;;;;;;388.93;146.27;;;;;;;;;;4968225;28;20472;-54
2022/12/03 10:04:59;;;;;;;539.83;191.83;;;;;;;;;;4957003;28;20177;-53
2022/12/03 10:07:25;;;;;;;564.57;203.70;;;;;;;;;;4956142;28;20562;-53
2022/12/03 10:09:51;;;;;;;571.63;208.90;;;;;;;;;;4956290;28;20220;-52
2022/12/03 10:12:22;;;;;;;615.10;237.67;;;;;;;;;;4959677;28;20225;-53
2022/12/03 10:14:48;;;;;;;562.20;217.47;;;;;;;;;;4969195;28;20229;-54
2022/12/03 10:17:14;;;;;;;566.83;215.03;;;;;;;;;;4966835;28;20217;-52
2022/12/03 10:19:41;;;;;;;639.43;250.83;;;;;;;;;;4963111;28;20296;-54
2022/12/03 10:22:07;;;;;;;622.77;228.67;;;;;;;;;;4954136;28;20603;-53
2022/12/03 10:24:35;;;;;;;562.10;205.37;;;;;;;;;;4953806;28;20213;-54
2022/12/03 10:27:24;;;;;;;569.47;203.13;;;;;;;;;;4960050;28;20228;-53
2022/12/03 10:29:57;;;;;;;555.87;194.40;;;;;;;;;;4956893;28;20224;-53
2022/12/03 10:32:42;;;;;;;537.90;204.07;;;;;;;;;;4961449;28;20685;-53
2022/12/03 10:35:22;;;;;;;476.43;176.73;;;;;;;;;;4966435;28;20189;-53
2022/12/03 10:38:01;;;;;;;563.77;215.63;;;;;;;;;;4956961;28;20189;-53
2022/12/03 10:40:29;;;;;;;571.43;203.23;;;;;;;;;;4956058;28;20228;-55
2022/12/03 10:43:13;;;;;;;194.93;92.77;;;;;;;;;;4976789;28;20244;-53
2022/12/03 10:45:40;;;;;;;192.63;92.97;;;;;;;;;;4983684;28;20221;-53
2022/12/03 10:48:16;;;;;;;203.10;97.20;;;;;;;;;;4982486;28;20437;-53
2022/12/03 10:50:46;;;;;;;171.93;88.03;;;;;;;;;;4985232;28;20244;-53
2022/12/03 10:53:12;;;;;;;173.67;86.23;;;;;;;;;;4985410;28;20271;-53
2022/12/03 10:55:40;;;;;;;183.90;90.43;;;;;;;;;;4986840;28;20273;-53
2022/12/03 10:58:08;;;;;;;235.70;107.83;;;;;;;;;;4980088;28;20223;-53
2022/12/03 11:00:34;;;;;;;268.23;118.83;;;;;;;;;;4977516;28;20224;-52
2022/12/03 11:03:00;;;;;;;183.53;90.60;;;;;;;;;;4981071;28;20217;-53
2022/12/03 11:05:27;;;;;;;148.97;80.17;;;;;;;;;;4983584;28;20221;-53
2022/12/03 11:07:53;;;;;;;188.90;92.30;;;;;;;;;;4980294;28;20213;-56
2022/12/03 11:10:20;;;;;;;178.07;89.83;;;;;;;;;;4982727;28;20214;-53
2022/12/03 11:13:04;;;;;;;216.97;100.53;;;;;;;;;;4984316;28;20300;-53
2022/12/03 11:15:41;;;;;;;233.60;108.77;;;;;;;;;;4979094;28;20221;-53
2022/12/03 11:18:07;;;;;;;208.53;99.07;;;;;;;;;;4981733;28;20213;-54
2022/12/03 11:20:45;;;;;;;180.90;89.73;;;;;;;;;;4981061;28;20315;-54
2022/12/03 11:23:11;;;;;;;192.83;93.40;;;;;;;;;;4978139;28;20228;-54
2022/12/03 11:25:49;;;;;;;237.50;109.23;;;;;;;;;;4975632;28;20631;-55
2022/12/03 11:28:17;;;;;;;193.77;95.60;;;;;;;;;;4978021;28;20380;-54
2022/12/03 11:30:49;;;;;;;206.73;98.37;;;;;;;;;;4979273;28;20228;-54
2022/12/03 11:33:22;;;;;;;217.47;102.23;;;;;;;;;;4983590;28;20221;-55
2022/12/03 11:36:03;;;;;;;195.53;94.00;;;;;;;;;;4982254;28;20213;-55
2022/12/03 11:38:39;;;;;;;201.97;96.80;;;;;;;;;;4981837;28;20214;-54
2022/12/03 11:41:16;;;;;;;137.10;77.57;;;;;;;;;;4982538;28;20713;-54
2022/12/03 11:43:51;;;;;;;219.07;102.77;;;;;;;;;;4979767;28;20237;-53
2022/12/03 11:46:40;;;;;;;169.33;85.60;;;;;;;;;;4985021;28;20559;-54
2022/12/03 11:49:22;;;;;;;194.50;93.07;;;;;;;;;;4978136;28;20244;-54
2022/12/03 11:51:48;;;;;;;185.00;91.67;;;;;;;;;;4984641;28;20205;-53
2022/12/03 11:54:18;;;;;;;586.47;238.33;;;;;;;;;;4974016;28;20419;-54
2022/12/03 11:56:46;;;;;;;536.20;217.87;;;;;;;;;;4951567;28;20294;-54
2022/12/03 11:59:12;;;;;;;517.67;192.10;;;;;;;;;;4954653;28;21985;-54
2022/12/03 12:01:40;;;;;;;593.17;229.50;;;;;;;;;;4953845;28;20372;-54
2022/12/03 12:04:06;;;;;;;406.80;166.23;;;;;;;;;;4963267;28;20590;-55
2022/12/03 12:06:40;;;;;;;488.23;188.20;;;;;;;;;;4962537;28;20225;-54
2022/12/03 12:09:06;;;;;;;465.33;176.67;;;;;;;;;;4965232;28;20240;-55
2022/12/03 12:11:33;;;;;;;494.77;184.47;;;;;;;;;;4967027;28;22019;-54
2022/12/03 12:14:02;;;;;;;588.23;221.67;;;;;;;;;;4963058;28;20630;-54
2022/12/03 12:16:49;;;;;;;623.90;245.43;;;;;;;;;;4959659;28;20279;-55
2022/12/03 12:19:34;;;;;;;534.27;217.77;;;;;;;;;;4958975;28;20213;-54
2022/12/03 12:22:18;;;;;;;568.40;216.47;;;;;;;;;;4960631;28;20607;-54
2022/12/03 12:24:46;;;;;;;535.97;209.37;;;;;;;;;;4969078;28;20978;-54
2022/12/03 12:27:13;;;;;;;521.23;199.43;;;;;;;;;;4964416;28;20820;-54
2022/12/03 12:29:40;;;;;;;469.40;181.90;;;;;;;;;;4958266;28;20218;-54
2022/12/03 12:32:09;;;;;;;527.87;196.87;;;;;;;;;;4969234;28;20205;-54
2022/12/03 12:34:39;;;;;;;516.97;193.37;;;;;;;;;;4965748;28;20185;-54
2022/12/03 12:37:10;;;;;;;577.73;223.07;;;;;;;;;;4967539;28;20623;-53
2022/12/03 12:39:37;;;;;;;467.03;180.27;;;;;;;;;;4968028;28;20221;-55
2022/12/03 12:42:10;;;;;;;467.27;177.27;;;;;;;;;;4964580;28;20645;-54
2022/12/03 12:44:36;;;;;;;407.20;159.43;;;;;;;;;;4976808;28;20220;-54
2022/12/03 12:47:10;;;;;;;454.37;169.47;;;;;;;;;;4975505;28;20181;-53
2022/12/03 12:49:36;;;;;;;598.07;232.33;;;;;;;;;;4954064;28;20183;-53
2022/12/03 12:52:05;;;;;;;495.23;199.23;;;;;;;;;;4955011;28;20312;-52
2022/12/03 12:54:31;;;;;;;493.73;185.20;;;;;;;;;;4968842;28;20324;-54
2022/12/03 12:56:57;;;;;;;403.23;156.77;;;;;;;;;;4973413;28;20504;-53
2022/12/03 12:59:23;;;;;;;513.80;187.87;;;;;;;;;;4964242;28;20213;-54
2022/12/03 13:01:50;;;;;;;568.50;214.43;;;;;;;;;;4966286;28;20699;-53
2022/12/03 13:04:18;;;;;;;593.23;239.07;;;;;;;;;;4964262;28;20942;-54
2022/12/03 13:06:44;;;;;;;477.80;195.50;;;;;;;;;;4972053;28;20214;-53
2022/12/03 13:09:21;;;;;;;552.77;222.50;;;;;;;;;;4955982;28;20234;-53
2022/12/03 13:11:51;;;;;;;676.40;282.20;;;;;;;;;;4953340;28;22108;-54
2022/12/03 13:14:19;;;;;;;509.07;200.93;;;;;;;;;;4964959;28;20228;-54
2022/12/03 13:16:46;;;;;;;594.80;235.90;;;;;;;;;;4962370;28;20276;-53
2022/12/03 13:19:32;;;;;;;442.37;163.37;;;;;;;;;;4958470;28;20262;-54
2022/12/03 13:22:02;;;;;;;442.57;177.13;;;;;;;;;;4966929;28;20396;-53
2022/12/03 13:24:31;;;;;;;427.80;161.20;;;;;;;;;;4965549;28;20239;-54
2022/12/03 13:26:57;;;;;;;481.93;185.20;;;;;;;;;;4976078;28;20217;-53
2022/12/03 13:29:25;;;;;;;500.13;193.83;;;;;;;;;;4971323;28;20249;-52
2022/12/03 13:31:58;;;;;;;591.63;222.53;;;;;;;;;;4971621;28;20228;-54
2022/12/03 13:34:26;;;;;;;417.73;158.93;;;;;;;;;;4968845;28;20958;-54
2022/12/03 13:36:53;;;;;;;566.03;213.17;;;;;;;;;;4969340;28;20232;-52
2022/12/03 13:39:20;;;;;;;522.13;194.13;;;;;;;;;;4977193;28;20590;-51
2022/12/03 13:44:42;;;;;;;440.27;169.93;;;;;;;;;;4971072;28;20648;-53
2022/12/03 13:47:13;;;;;;;547.83;205.10;;;;;;;;;;4967769;28;20272;-53
2022/12/03 13:49:39;;;;;;;508.07;196.57;;;;;;;;;;4965476;28;20244;-52
2022/12/03 13:52:13;;;;;;;611.93;233.90;;;;;;;;;;4966551;28;21085;-53
2022/12/03 13:54:39;;;;;;;464.27;177.13;;;;;;;;;;4965448;28;20212;-52
2022/12/03 13:57:05;;;;;;;464.30;182.50;;;;;;;;;;4955818;28;20719;-53
2022/12/03 13:59:32;;;;;;;527.47;209.07;;;;;;;;;;4953269;28;21009;-53
2022/12/03 14:01:58;;;;;;;445.00;178.13;;;;;;;;;;4962161;28;20182;-53
2022/12/03 14:04:24;;;;;;;579.27;225.57;;;;;;;;;;4971130;28;20508;-56
2022/12/03 14:06:50;;;;;;;622.13;242.97;;;;;;;;;;4965407;28;20560;-53
2022/12/03 14:09:16;;;;;;;592.10;227.87;;;;;;;;;;4963295;28;20233;-53
2022/12/03 14:14:27;;;;;;;529.03;215.23;;;;;;;;;;4966708;28;20232;-52
2022/12/03 14:16:53;;;;;;;566.07;222.57;;;;;;;;;;4956037;28;20189;-54
2022/12/03 14:19:18;;;;;;;632.17;246.33;;;;;;;;;;4960861;28;20690;-54
2022/12/03 14:21:44;;;;;;;529.00;219.80;;;;;;;;;;4967832;28;20460;-54
2022/12/03 14:24:13;;;;;;;492.63;196.80;;;;;;;;;;4969753;28;20306;-52